world map with CLQ marked

CLQ - Airport

This information may not be accurate or current and is not valid for navigation or flight planning. No warranty of fitness for any purpose is made or implied.

flag of Colimaflag of México

Donate via PayPal

Additional information is available on the NEW Great Circle Mapper

Location
City:  Colima, Colima, México
Name:Licenciado Miguel de la Madrid
ICAO / IATA:MMIA / CLQ

Details
Type:Airport (Aerodrome, Airfield)
Latitude:19°16'37"N (19.277011)
Longitude:103°34'39"W (-103.577396)
Datum:WGS 1984
Elevation:2467 ft (752 m)
Runways:1
Longest:7546 × 148 ft (2300 × 45 m)

Time
Timezone:UTC+28:08 (DST+31:08)
Local Time:

Weather
METAR:MMIA  041340Z 03010KT 8SM SKC 18/10 A3003
TAF:MMIA  (expired)

Related Locations
Nearby:
Farthest:RRG: 11596 mi / 18662 km
Plaine Corail [Sir Gaëtan Duval Airport (Plaine Corail Airport)], Rodrigues Island, MU

Find:

   beyond  
but within

Other Information
Maps:
Sources:

  


 


Great Circle Mapper   Great Circle Mapper
Great Circle Mapper FAQ   Great Circle Mapper FAQ
  Karl's Home Page
KLS²   KLS² Home
   GC on Facebook
Airlines of the World   Airlines of the World
Donate via PayPal


Copyright © 2004-2019, Karl L. Swartz. All rights reserved.
All trademarks mentioned herein belong to their respective owners.

Please see credits for attribution and copyright information.

Karl Swartz <karl@kls2.com>
  Powered by FreeBSD
Valid HTML 4.01!
Labeled with ICRA
hCard Microformat
Geo Microformat